Forside
METAR-TAF:

METAR-TAF

Lufthavne :

Ashtabula County Airport

Ashtabula, Ohio, USA

Breddekreds: 41-46-46N, længdekreds: 080-41-48W, højde: 281 m

Aktuelle vejr

Denne rapport blev lavet for 39 minutter siden, kl. 17:53 UTC
Vind 12 kt fra sydsydvest med vindstød på up til 19 kt
Temperatur 9°C
Fugtighed 27%
Tryk 1017 hPa
Sigt: 16.1 km
skyfri

METAR: KHZY 231753Z AUTO 21012G19KT 10SM CLR 09/M09 A3004 RMK AO2 SLP178 T00941089 10094 21022 58022

Tid: 13:32 (18:32 UTC)


TAF: fraværende

Vejrobservationer og prognoser fra mere end 4000 lufthavne (METAR og TAF).

De gule og røde prikker repræsenterer de meteorologiske stationer.

Flyt musen over at se navnet på stationen.

Så klik over at se vejr observationer og prognoser.

At skifte det kort: Klik på de grønne knapper med et sort kors for at zoome ind; på den grønne knap med en bindestreg for at zoome ud; eller på de grønne pile for tilstødende kort.


METAR-TAF: